Time;durP1;ratioP1;P1;durP2;ratioP2;P2;SDS_P1;SDS_P2;PMS_P1;PMS_P2;Temp;Humidity;BMP_temperature;BMP_pressure;BME280_temperature;BME280_humidity;BME280_pressure;Samples;Min_cycle;Max_cycle;Signal;HPM_P1;HPM_P2
2023/06/21 00:00:13;;;;;;;51.10;35.60;;;;;;;20.89;100.00;101156.91;5031955;28;27405;-72
2023/06/21 00:02:40;;;;;;;57.17;34.38;;;;;;;21.03;100.00;101149.22;5036556;28;20029;-72
2023/06/21 00:05:09;;;;;;;39.28;31.90;;;;;;;20.75;100.00;101152.03;5034209;28;20658;-71
2023/06/21 00:07:35;;;;;;;41.88;31.55;;;;;;;20.72;100.00;101152.34;5032061;28;20069;-73
2023/06/21 00:10:01;;;;;;;42.17;32.28;;;;;;;20.57;100.00;101154.75;5038448;28;20782;-72
2023/06/21 00:12:27;;;;;;;37.20;29.83;;;;;;;20.86;100.00;101156.38;5032531;28;20075;-72
2023/06/21 00:14:53;;;;;;;34.58;28.80;;;;;;;20.78;100.00;101162.56;5032501;28;20541;-72
2023/06/21 00:17:19;;;;;;;40.17;31.45;;;;;;;20.76;100.00;101156.47;5031937;28;20038;-72
2023/06/21 00:19:44;;;;;;;39.15;29.00;;;;;;;20.74;100.00;101149.50;5038262;28;20033;-72
2023/06/21 00:22:10;;;;;;;33.92;26.77;;;;;;;20.62;100.00;101141.59;5032757;28;20021;-72
2023/06/21 00:24:36;;;;;;;31.88;26.10;;;;;;;20.71;100.00;101153.34;5032538;28;20044;-71
2023/06/21 00:27:01;;;;;;;30.42;24.77;;;;;;;20.58;100.00;101158.31;5042709;28;20069;-72
2023/06/21 00:29:27;;;;;;;37.13;28.23;;;;;;;20.68;100.00;101165.38;5034693;28;20072;-72
2023/06/21 00:31:54;;;;;;;35.78;27.73;;;;;;;20.58;100.00;101164.59;5044993;28;20032;-73
2023/06/21 00:34:19;;;;;;;35.17;27.48;;;;;;;20.56;100.00;101163.03;5035392;28;20037;-72
2023/06/21 00:36:45;;;;;;;33.92;29.23;;;;;;;20.45;100.00;101161.38;5036785;28;20030;-72
2023/06/21 00:39:11;;;;;;;35.38;28.40;;;;;;;20.35;100.00;101161.44;5032746;28;20073;-72
2023/06/21 00:41:37;;;;;;;38.25;30.35;;;;;;;20.46;100.00;101175.78;5039489;28;20056;-73
2023/06/21 00:44:03;;;;;;;38.58;31.23;;;;;;;20.25;100.00;101173.34;5037274;28;20060;-73
2023/06/21 00:46:29;;;;;;;38.60;31.17;;;;;;;20.22;100.00;101171.78;5032514;28;20056;-72
2023/06/21 00:48:57;;;;;;;40.50;32.95;;;;;;;20.38;100.00;101179.22;5038333;28;20661;-73
2023/06/21 00:51:23;;;;;;;40.70;32.08;;;;;;;20.27;100.00;101185.72;5037828;28;20049;-72
2023/06/21 00:53:49;;;;;;;41.47;32.33;;;;;;;20.23;100.00;101189.75;5029712;28;20034;-72
2023/06/21 00:56:16;;;;;;;44.65;34.20;;;;;;;20.12;100.00;101195.34;5030071;28;21048;-72
2023/06/21 00:58:43;;;;;;;39.05;31.52;;;;;;;20.27;100.00;101195.69;5031652;28;20039;-72
2023/06/21 01:01:09;;;;;;;39.85;31.35;;;;;;;20.09;100.00;101191.13;5034768;28;20266;-72
2023/06/21 01:03:36;;;;;;;35.83;28.38;;;;;;;20.20;100.00;101190.06;5036633;28;20026;-72
2023/06/21 01:06:26;;;;;;;37.78;29.17;;;;;;;20.13;100.00;101187.09;5040130;28;20072;-72
2023/06/21 01:08:54;;;;;;;35.60;28.90;;;;;;;20.10;100.00;101192.81;5039918;28;20041;-72
2023/06/21 01:11:52;;;;;;;39.85;27.83;;;;;;;20.18;100.00;101184.78;5032434;28;20035;-72
2023/06/21 01:14:30;;;;;;;36.92;27.55;;;;;;;20.06;100.00;101196.81;5038852;28;20087;-72
2023/06/21 01:16:56;;;;;;;38.17;27.02;;;;;;;20.06;100.00;101204.94;5038388;28;20069;-72
2023/06/21 01:19:22;;;;;;;31.75;24.52;;;;;;;19.86;100.00;101203.31;5036730;28;20037;-72
2023/06/21 01:21:47;;;;;;;37.08;26.15;;;;;;;19.78;100.00;101206.78;5037768;28;20029;-72
2023/06/21 01:24:27;;;;;;;31.27;25.50;;;;;;;19.72;100.00;101206.50;5033470;28;20907;-72
2023/06/21 01:27:27;;;;;;;30.15;23.05;;;;;;;19.87;100.00;101218.56;5031201;28;20053;-72
2023/06/21 01:29:57;;;;;;;37.13;24.60;;;;;;;19.70;100.00;101217.47;5031842;28;21139;-72
2023/06/21 01:32:27;;;;;;;32.05;25.05;;;;;;;19.83;100.00;101219.84;5036541;28;20095;-72
2023/06/21 01:35:01;;;;;;;32.20;25.40;;;;;;;19.81;100.00;101222.72;5033105;28;20033;-72
2023/06/21 01:37:26;;;;;;;38.55;26.85;;;;;;;19.79;100.00;101215.75;5036391;28;20029;-71
2023/06/21 01:39:52;;;;;;;37.33;25.35;;;;;;;19.86;100.00;101228.53;5035210;28;20041;-72
2023/06/21 01:42:19;;;;;;;33.47;24.50;;;;;;;19.82;100.00;101229.81;5031271;28;20030;-72
2023/06/21 01:44:45;;;;;;;35.28;26.17;;;;;;;19.83;100.00;101228.84;5037432;28;20041;-72
2023/06/21 01:47:12;;;;;;;35.40;25.23;;;;;;;19.65;100.00;101227.91;5029881;28;20585;-72
2023/06/21 01:49:38;;;;;;;36.58;26.98;;;;;;;19.82;100.00;101223.56;5038892;28;20041;-72
2023/06/21 01:52:04;;;;;;;33.38;26.65;;;;;;;19.81;100.00;101216.44;5037590;28;20057;-71
2023/06/21 01:54:33;;;;;;;36.05;27.38;;;;;;;19.78;100.00;101225.72;5030194;28;20048;-73
2023/06/21 01:57:00;;;;;;;36.42;26.75;;;;;;;19.86;100.00;101220.41;5037510;28;20065;-72
2023/06/21 01:59:28;;;;;;;39.67;28.77;;;;;;;19.84;100.00;101217.00;5032594;28;20072;-71
2023/06/21 02:01:54;;;;;;;36.55;27.40;;;;;;;19.97;100.00;101229.34;5029743;28;20666;-72
2023/06/21 02:04:22;;;;;;;34.55;26.50;;;;;;;19.92;100.00;101229.78;5061854;28;20554;-72
2023/06/21 02:06:50;;;;;;;36.55;29.42;;;;;;;19.86;100.00;101233.94;5029002;28;20048;-72
2023/06/21 02:09:17;;;;;;;38.10;29.75;;;;;;;19.87;100.00;101232.94;5029622;28;20600;-72
2023/06/21 02:11:43;;;;;;;37.33;29.05;;;;;;;19.80;100.00;101233.69;5030907;28;20056;-72
2023/06/21 02:14:09;;;;;;;36.65;28.30;;;;;;;19.71;100.00;101238.13;5035076;28;20037;-72
2023/06/21 02:16:35;;;;;;;40.35;31.00;;;;;;;19.68;100.00;101235.72;5036409;28;20092;-72
2023/06/21 02:19:00;;;;;;;41.05;31.45;;;;;;;19.69;100.00;101242.84;5039727;28;20847;-72
2023/06/21 02:21:26;;;;;;;41.92;32.08;;;;;;;19.81;100.00;101235.38;5045499;28;20038;-73
2023/06/21 02:23:51;;;;;;;43.03;32.17;;;;;;;19.84;100.00;101237.81;5031536;28;20069;-72
2023/06/21 02:26:17;;;;;;;40.92;30.88;;;;;;;19.88;100.00;101233.78;5030315;28;20044;-72
2023/06/21 02:28:44;;;;;;;43.95;32.22;;;;;;;19.93;100.00;101234.22;5033955;28;20117;-72
2023/06/21 02:31:09;;;;;;;40.10;32.00;;;;;;;19.94;100.00;101241.34;5033649;28;20044;-72
2023/06/21 02:33:35;;;;;;;44.40;31.92;;;;;;;20.01;100.00;101234.31;5037939;28;20045;-72
2023/06/21 02:36:00;;;;;;;43.42;32.60;;;;;;;20.03;100.00;101245.88;5035833;28;20124;-72
2023/06/21 02:38:26;;;;;;;44.38;33.28;;;;;;;20.07;100.00;101246.41;5037275;28;20043;-72
2023/06/21 02:40:52;;;;;;;42.72;30.48;;;;;;;20.08;100.00;101256.22;5030500;28;20034;-72
2023/06/21 02:43:18;;;;;;;42.88;30.83;;;;;;;19.94;100.00;101248.59;5033476;28;20091;-72
2023/06/21 02:45:45;;;;;;;45.75;32.65;;;;;;;19.97;100.00;101256.41;5030755;28;20037;-72
2023/06/21 02:48:11;;;;;;;44.42;32.65;;;;;;;19.98;100.00;101253.59;5042569;28;20021;-72
2023/06/21 02:50:36;;;;;;;46.47;33.78;;;;;;;19.98;100.00;101263.53;5033178;28;20034;-72
2023/06/21 02:53:02;;;;;;;46.80;32.85;;;;;;;20.05;100.00;101265.50;5036477;28;20080;-72
2023/06/21 02:55:27;;;;;;;48.10;34.67;;;;;;;19.85;100.00;101270.13;5033387;28;20064;-73
2023/06/21 02:57:54;;;;;;;43.72;33.17;;;;;;;19.86;100.00;101260.16;5032704;28;21149;-72
2023/06/21 03:00:28;;;;;;;47.75;33.88;;;;;;;19.81;100.00;101274.13;5036389;28;20060;-72
2023/06/21 03:03:00;;;;;;;49.10;35.33;;;;;;;19.65;100.00;101285.56;5033867;28;20031;-72
2023/06/21 03:05:34;;;;;;;;;;;;;;;19.66;100.00;101295.38;5035648;28;20065;-73
2023/06/21 03:08:00;;;;;;;47.72;33.65;;;;;;;19.71;100.00;101300.38;5035009;28;19920;-72
2023/06/21 03:10:26;;;;;;;44.65;34.75;;;;;;;19.64;100.00;101299.25;5033442;28;20025;-72
2023/06/21 03:12:52;;;;;;;55.08;36.40;;;;;;;19.63;100.00;101297.56;5039074;28;20099;-72
2023/06/21 03:15:20;;;;;;;43.67;33.85;;;;;;;19.71;100.00;101299.50;5031858;28;20065;-73
2023/06/21 03:17:46;;;;;;;52.47;36.60;;;;;;;19.72;100.00;101298.50;5031980;28;20029;-72
2023/06/21 03:20:13;;;;;;;48.45;36.22;;;;;;;19.77;100.00;101307.91;5038519;28;20033;-73
2023/06/21 03:22:41;;;;;;;51.47;36.88;;;;;;;19.65;100.00;101300.94;5029176;28;20107;-73
2023/06/21 03:25:08;;;;;;;44.97;32.22;;;;;;;19.72;100.00;101302.06;5035689;28;20042;-72
2023/06/21 03:27:34;;;;;;;44.15;34.30;;;;;;;19.75;100.00;101304.50;5044151;28;20505;-73
2023/06/21 03:30:01;;;;;;;52.28;37.42;;;;;;;19.76;100.00;101308.91;5032966;28;20176;-73
2023/06/21 03:32:27;;;;;;;48.08;34.80;;;;;;;19.76;100.00;101308.06;5032748;28;20124;-72
2023/06/21 03:34:52;;;;;;;53.33;37.50;;;;;;;19.52;100.00;101311.19;5033800;28;20041;-73
2023/06/21 03:37:18;;;;;;;51.53;38.75;;;;;;;19.71;100.00;101316.59;5042543;28;20657;-73
2023/06/21 03:39:44;;;;;;;51.95;36.80;;;;;;;19.82;100.00;101319.13;5041164;28;20773;-73
2023/06/21 03:42:10;;;;;;;53.38;37.13;;;;;;;19.70;100.00;101331.13;5042851;28;20056;-72
2023/06/21 03:44:36;;;;;;;49.28;34.15;;;;;;;19.97;100.00;101330.34;5040663;28;20088;-72
2023/06/21 03:47:02;;;;;;;45.63;33.60;;;;;;;20.06;100.00;101325.94;5036814;28;20041;-73
2023/06/21 03:49:30;;;;;;;54.75;37.88;;;;;;;20.15;100.00;101330.47;5036457;28;20037;-74
2023/06/21 03:51:55;;;;;;;52.88;37.47;;;;;;;20.18;100.00;101333.75;5038184;28;20160;-73
2023/06/21 03:54:21;;;;;;;51.15;35.72;;;;;;;20.56;100.00;101331.03;5038288;28;20476;-73
2023/06/21 03:56:46;;;;;;;44.67;35.67;;;;;;;20.86;100.00;101325.31;5039359;28;20033;-73
2023/06/21 03:59:12;;;;;;;43.75;34.58;;;;;;;20.89;100.00;101313.31;5042039;28;20034;-73
2023/06/21 04:01:37;;;;;;;45.47;34.83;;;;;;;21.34;100.00;101312.44;5046660;28;20042;-74
2023/06/21 04:04:03;;;;;;;56.45;36.80;;;;;;;21.51;100.00;101308.84;5048228;28;20400;-73
2023/06/21 04:06:29;;;;;;;45.63;34.00;;;;;;;21.28;100.00;101310.31;5032669;28;20030;-73
2023/06/21 04:08:57;;;;;;;50.10;35.15;;;;;;;21.72;100.00;101314.78;5045983;28;20069;-73
2023/06/21 04:11:24;;;;;;;43.28;33.97;;;;;;;21.95;100.00;101320.56;5065512;28;20465;-73
2023/06/21 04:13:49;;;;;;;43.45;34.00;;;;;;;22.18;100.00;101322.75;5031887;28;20045;-74
2023/06/21 04:16:14;;;;;;;42.67;33.28;;;;;;;21.94;100.00;101332.44;5031951;28;20040;-73
2023/06/21 04:18:40;;;;;;;45.30;34.00;;;;;;;21.54;100.00;101329.41;5034374;28;20115;-72
2023/06/21 04:21:06;;;;;;;47.08;35.92;;;;;;;21.19;100.00;101325.66;5046392;28;20033;-73
2023/06/21 04:23:32;;;;;;;49.83;35.63;;;;;;;21.25;100.00;101324.19;5046529;28;20462;-73
2023/06/21 04:25:58;;;;;;;51.13;38.75;;;;;;;21.15;100.00;101325.13;5042547;28;20040;-73
2023/06/21 04:28:25;;;;;;;49.97;36.97;;;;;;;21.04;100.00;101327.22;5034824;28;20045;-73
2023/06/21 04:30:52;;;;;;;47.40;37.67;;;;;;;21.04;100.00;101333.47;5033510;28;20032;-73
2023/06/21 04:33:18;;;;;;;47.08;37.20;;;;;;;21.18;100.00;101329.34;5047834;28;20766;-73
2023/06/21 04:35:43;;;;;;;54.17;39.88;;;;;;;21.13;100.00;101335.25;5043488;28;20033;-74
2023/06/21 04:38:09;;;;;;;53.78;40.70;;;;;;;21.14;100.00;101336.13;5046442;28;20045;-72
2023/06/21 04:40:34;;;;;;;57.03;39.88;;;;;;;21.13;100.00;101339.81;5043804;28;20294;-72
2023/06/21 04:43:02;;;;;;;53.15;40.35;;;;;;;21.29;100.00;101344.59;5048324;28;20037;-73
2023/06/21 04:45:27;;;;;;;52.13;41.50;;;;;;;21.31;100.00;101340.72;5043987;28;20091;-72
2023/06/21 04:47:57;;;;;;;56.30;42.45;;;;;;;21.36;100.00;101342.97;5047860;28;20029;-73
2023/06/21 04:50:23;;;;;;;65.53;44.15;;;;;;;21.23;100.00;101353.31;5043640;28;20040;-73
2023/06/21 04:52:49;;;;;;;56.65;44.25;;;;;;;20.99;100.00;101354.78;5036271;28;20049;-73
2023/06/21 04:55:19;;;;;;;69.78;49.15;;;;;;;21.39;100.00;101348.09;5045418;28;20051;-72
2023/06/21 04:57:46;;;;;;;68.47;48.53;;;;;;;21.29;100.00;101347.28;5071405;28;20045;-73
2023/06/21 05:00:12;;;;;;;67.97;49.83;;;;;;;21.36;100.00;101349.25;5043347;28;20037;-72
2023/06/21 05:02:38;;;;;;;77.38;50.17;;;;;;;21.56;100.00;101335.53;5039926;28;20204;-72
2023/06/21 05:05:05;;;;;;;70.75;49.83;;;;;;;21.67;100.00;101335.28;5037254;28;20038;-73
2023/06/21 05:07:30;;;;;;;69.30;48.97;;;;;;;21.71;100.00;101345.66;5031012;28;20369;-73
2023/06/21 05:09:56;;;;;;;66.88;47.28;;;;;;;21.24;100.00;101355.91;5029427;28;20200;-72
2023/06/21 05:12:21;;;;;;;72.40;50.85;;;;;;;21.49;100.00;101364.28;5041680;28;20999;-73
2023/06/21 05:14:47;;;;;;;63.42;47.13;;;;;;;21.45;100.00;101364.59;5043300;28;20364;-72
2023/06/21 05:17:15;;;;;;;72.95;50.03;;;;;;;21.69;100.00;101372.13;5037518;28;20041;-73
2023/06/21 05:19:42;;;;;;;71.47;50.63;;;;;;;21.65;100.00;101369.88;5030770;28;20086;-72
2023/06/21 05:22:07;;;;;;;72.85;48.35;;;;;;;21.81;100.00;101364.56;5035699;28;20041;-73
2023/06/21 05:24:33;;;;;;;65.03;48.78;;;;;;;22.04;100.00;101367.66;5033937;28;20557;-73
2023/06/21 05:26:59;;;;;;;64.30;46.53;;;;;;;22.18;100.00;101375.22;5043277;28;20048;-73
2023/06/21 05:29:24;;;;;;;65.25;47.05;;;;;;;22.20;100.00;101370.50;5044415;28;20071;-72
2023/06/21 05:31:50;;;;;;;61.13;45.20;;;;;;;22.57;100.00;101368.47;5047443;28;20045;-73
2023/06/21 05:34:15;;;;;;;66.95;48.15;;;;;;;22.45;100.00;101371.50;5046222;28;20056;-73
2023/06/21 05:36:41;;;;;;;63.55;44.97;;;;;;;22.26;100.00;101373.59;5044836;28;20064;-73
2023/06/21 05:39:06;;;;;;;61.38;45.47;;;;;;;22.07;100.00;101375.47;5046214;28;20034;-72
2023/06/21 05:41:33;;;;;;;59.40;43.75;;;;;;;22.23;100.00;101375.59;5040653;28;20037;-73
2023/06/21 05:43:58;;;;;;;60.40;43.13;;;;;;;22.22;100.00;101373.03;5048189;28;20108;-72
2023/06/21 05:46:24;;;;;;;57.22;43.55;;;;;;;22.24;100.00;101371.03;5048359;28;20041;-72
2023/06/21 05:48:49;;;;;;;53.03;41.22;;;;;;;22.48;100.00;101375.75;5045297;28;20045;-72
2023/06/21 05:51:15;;;;;;;58.65;44.30;;;;;;;22.59;100.00;101371.88;5040392;28;20040;-73
2023/06/21 05:53:40;;;;;;;55.15;44.42;;;;;;;22.80;100.00;101375.06;5036163;28;20558;-72
2023/06/21 05:56:06;;;;;;;54.50;41.90;;;;;;;22.73;100.00;101369.41;5039261;28;20029;-73
2023/06/21 05:58:31;;;;;;;56.55;43.40;;;;;;;23.16;100.00;101378.44;5040343;28;20114;-73
2023/06/21 06:00:57;;;;;;;57.50;44.72;;;;;;;23.17;100.00;101376.56;5039717;28;20923;-72
2023/06/21 06:03:23;;;;;;;57.58;44.55;;;;;;;23.59;100.00;101378.31;5034283;28;20025;-73
2023/06/21 06:05:49;;;;;;;51.03;40.78;;;;;;;23.55;100.00;101376.97;5038494;28;20083;-73
2023/06/21 06:08:15;;;;;;;59.13;44.25;;;;;;;23.39;100.00;101386.78;5038688;28;20111;-73
2023/06/21 06:10:41;;;;;;;59.63;44.95;;;;;;;22.98;100.00;101385.84;5033229;28;20052;-72
2023/06/21 06:13:07;;;;;;;61.22;44.75;;;;;;;23.03;100.00;101393.50;5030320;28;20041;-72
2023/06/21 06:15:32;;;;;;;55.17;43.35;;;;;;;23.34;100.00;101391.88;5037695;28;20076;-73
2023/06/21 06:17:58;;;;;;;53.10;41.38;;;;;;;23.07;100.00;101403.91;5031682;28;20044;-72
2023/06/21 06:20:23;;;;;;;59.67;42.70;;;;;;;23.27;100.00;101405.31;5035540;28;20151;-71
2023/06/21 06:22:49;;;;;;;54.90;40.95;;;;;;;23.85;100.00;101413.63;5040394;28;20045;-72
2023/06/21 06:25:15;;;;;;;49.53;40.72;;;;;;;24.45;100.00;101407.75;5038938;28;20087;-71
2023/06/21 06:27:40;;;;;;;50.58;39.90;;;;;;;24.88;100.00;101408.31;5038600;28;20033;-72
2023/06/21 06:30:06;;;;;;;50.05;41.95;;;;;;;25.26;100.00;101410.22;5035242;28;20041;-71
2023/06/21 06:32:32;;;;;;;51.33;43.83;;;;;;;26.01;100.00;101405.94;5031569;28;20148;-70
2023/06/21 06:34:57;;;;;;;47.30;39.78;;;;;;;26.61;100.00;101410.50;5036894;28;20549;-72
2023/06/21 06:37:24;;;;;;;49.10;41.10;;;;;;;26.73;100.00;101402.63;5032099;28;20521;-72
2023/06/21 06:39:54;;;;;;;46.90;40.83;;;;;;;25.96;100.00;101406.50;5043785;28;20025;-72
2023/06/21 06:42:19;;;;;;;49.35;42.70;;;;;;;25.35;100.00;101399.22;5035716;28;20029;-72
2023/06/21 06:44:45;;;;;;;49.85;43.58;;;;;;;25.13;100.00;101400.91;5032899;28;20037;-72
2023/06/21 06:47:11;;;;;;;50.08;43.05;;;;;;;24.86;100.00;101399.47;5033172;28;20021;-72
2023/06/21 06:49:37;;;;;;;48.90;43.17;;;;;;;24.20;100.00;101420.59;5040818;28;20060;-72
2023/06/21 06:52:03;;;;;;;46.88;41.65;;;;;;;24.49;100.00;101425.47;5039579;28;20088;-72
2023/06/21 06:54:28;;;;;;;46.40;40.22;;;;;;;24.74;100.00;101424.38;5041277;28;20236;-71
2023/06/21 06:56:54;;;;;;;46.03;38.42;;;;;;;25.36;100.00;101433.72;5041404;28;20042;-72
2023/06/21 06:59:19;;;;;;;44.90;36.22;;;;;;;25.77;100.00;101424.22;5038370;28;20033;-72
2023/06/21 07:01:45;;;;;;;44.15;38.03;;;;;;;26.54;100.00;101425.94;5036616;28;20033;-72
2023/06/21 07:04:10;;;;;;;40.35;35.53;;;;;;;26.50;100.00;101430.06;5040184;28;20406;-72
2023/06/21 07:06:36;;;;;;;41.55;36.33;;;;;;;26.01;100.00;101431.38;5037238;28;20037;-72
2023/06/21 07:09:02;;;;;;;41.20;36.30;;;;;;;26.31;100.00;101440.50;5032750;28;20744;-72
2023/06/21 07:11:28;;;;;;;39.95;34.90;;;;;;;26.15;100.00;101450.72;5037481;28;20987;-71
2023/06/21 07:13:54;;;;;;;44.33;36.60;;;;;;;26.34;99.97;101450.22;5032299;28;20581;-71
2023/06/21 07:16:20;;;;;;;42.83;35.90;;;;;;;26.28;100.00;101453.69;5031209;28;20034;-72
2023/06/21 07:18:46;;;;;;;40.90;35.75;;;;;;;26.06;100.00;101456.28;5038919;28;20033;-72
2023/06/21 07:21:12;;;;;;;45.53;38.60;;;;;;;26.28;100.00;101448.22;5035953;28;20565;-71
2023/06/21 07:23:37;;;;;;;41.33;35.80;;;;;;;26.08;100.00;101453.38;5025944;28;20064;-72
2023/06/21 07:26:03;;;;;;;38.13;33.95;;;;;;;26.13;98.32;101459.13;5031922;28;20081;-71
2023/06/21 07:28:29;;;;;;;39.72;33.88;;;;;;;26.19;97.23;101463.00;5030288;28;20176;-72
2023/06/21 07:30:54;;;;;;;37.03;32.78;;;;;;;26.56;97.23;101462.19;5032026;28;20036;-72
2023/06/21 07:33:21;;;;;;;41.55;34.03;;;;;;;26.88;96.18;101466.44;5038986;28;20826;-72
2023/06/21 07:35:47;;;;;;;40.55;34.10;;;;;;;26.37;95.53;101466.25;5027315;28;21246;-72
2023/06/21 07:38:13;;;;;;;43.28;36.30;;;;;;;26.19;98.77;101471.22;5036104;28;20088;-72
2023/06/21 07:40:41;;;;;;;39.00;34.88;;;;;;;26.07;96.27;101468.91;5042245;28;20063;-71
2023/06/21 07:43:07;;;;;;;43.42;38.67;;;;;;;25.82;96.72;101467.41;5034838;28;20033;-71
2023/06/21 07:45:32;;;;;;;42.13;37.58;;;;;;;25.62;98.75;101472.47;5037465;28;20045;-72
2023/06/21 07:47:58;;;;;;;47.42;41.72;;;;;;;25.87;100.00;101472.34;5032654;28;20049;-72
2023/06/21 07:50:26;;;;;;;49.95;43.10;;;;;;;25.98;100.00;101474.63;5039175;28;20048;-72
2023/06/21 07:52:51;;;;;;;48.80;41.92;;;;;;;26.38;98.99;101472.59;5031824;28;20047;-71
2023/06/21 07:55:17;;;;;;;47.60;41.13;;;;;;;26.49;99.30;101473.00;5038240;28;20057;-73
2023/06/21 07:57:43;;;;;;;45.67;40.80;;;;;;;26.70;96.64;101468.69;5035832;28;20918;-72
2023/06/21 08:00:11;;;;;;;49.13;43.88;;;;;;;26.63;99.81;101473.22;5032639;28;20133;-71
2023/06/21 08:02:44;;;;;;;46.00;40.20;;;;;;;26.30;97.45;101476.22;5030795;28;20840;-72
2023/06/21 08:05:10;;;;;;;47.95;41.80;;;;;;;26.65;95.82;101473.88;5035886;28;20055;-71
2023/06/21 08:07:36;;;;;;;46.90;40.47;;;;;;;27.08;92.92;101478.53;5033303;28;20550;-70
2023/06/21 08:10:02;;;;;;;45.45;40.50;;;;;;;27.30;90.11;101479.44;5043464;28;20040;-72
2023/06/21 08:12:27;;;;;;;43.80;39.05;;;;;;;27.51;90.79;101486.00;5031687;28;20160;-71
2023/06/21 08:14:53;;;;;;;45.13;39.60;;;;;;;27.44;88.88;101482.34;5038749;28;20144;-71
2023/06/21 08:17:18;;;;;;;50.97;41.67;;;;;;;27.24;85.52;101484.84;5032125;28;20042;-71
2023/06/21 08:19:44;;;;;;;43.53;38.80;;;;;;;27.90;87.91;101482.88;5032281;28;20048;-71
2023/06/21 08:22:09;;;;;;;40.42;36.10;;;;;;;27.82;81.26;101494.00;5033116;28;20034;-71
2023/06/21 08:24:35;;;;;;;39.00;34.80;;;;;;;27.48;83.57;101492.75;5031605;28;20134;-71
2023/06/21 08:27:00;;;;;;;36.78;31.42;;;;;;;27.54;86.53;101491.13;5034203;28;20037;-72
2023/06/21 08:29:26;;;;;;;39.28;30.23;;;;;;;28.02;88.48;101488.72;5034695;28;20514;-71
2023/06/21 08:31:51;;;;;;;35.63;31.63;;;;;;;28.09;82.20;101490.47;5042659;28;20541;-71
2023/06/21 08:34:17;;;;;;;37.47;32.72;;;;;;;28.47;85.46;101500.34;5030781;28;20033;-71
2023/06/21 08:36:43;;;;;;;37.00;33.03;;;;;;;27.44;85.93;101507.84;5042549;28;20032;-71
2023/06/21 08:39:09;;;;;;;38.28;34.20;;;;;;;28.11;86.37;101496.63;5039023;28;20499;-71
2023/06/21 08:41:41;;;;;;;38.22;34.10;;;;;;;28.14;80.12;101501.69;5042259;28;20026;-72
2023/06/21 08:44:07;;;;;;;40.92;32.63;;;;;;;28.36;78.90;101510.78;5034085;28;20037;-71
2023/06/21 08:46:34;;;;;;;37.10;33.10;;;;;;;28.10;77.69;101507.75;5040995;28;20061;-73
2023/06/21 08:49:04;;;;;;;39.20;31.92;;;;;;;28.59;82.04;101517.94;5034924;28;20825;-71
2023/06/21 08:51:30;;;;;;;34.50;30.90;;;;;;;28.44;76.11;101517.19;5034521;28;20089;-73
2023/06/21 08:54:10;;;;;;;34.50;30.90;;;;;;;27.97;78.11;101521.38;5035441;28;20387;-72
2023/06/21 08:56:46;;;;;;;32.95;28.90;;;;;;;27.87;75.08;101524.41;5041552;28;20033;-71
2023/06/21 08:59:21;;;;;;;30.95;26.42;;;;;;;27.65;78.22;101525.38;5033813;28;20029;-71
2023/06/21 09:02:13;;;;;;;30.27;26.83;;;;;;;28.05;80.46;101522.06;5040459;28;20117;-71
2023/06/21 09:04:45;;;;;;;31.63;26.42;;;;;;;27.67;81.95;101528.81;5041897;28;20068;-71
2023/06/21 09:07:12;;;;;;;28.05;23.85;;;;;;;27.49;77.96;101520.97;5045842;28;20048;-71
2023/06/21 09:09:38;;;;;;;29.48;25.30;;;;;;;28.30;81.61;101524.41;5037635;28;20104;-72
2023/06/21 09:12:05;;;;;;;26.95;23.00;;;;;;;28.32;77.79;101520.44;5040864;28;20064;-72
2023/06/21 09:14:31;;;;;;;22.05;19.73;;;;;;;28.11;74.36;101518.56;5038578;28;20876;-72
2023/06/21 09:17:00;;;;;;;22.65;20.13;;;;;;;28.51;74.84;101521.66;5034318;28;20124;-72
2023/06/21 09:19:26;;;;;;;26.08;20.10;;;;;;;28.80;77.29;101526.09;5039086;28;20098;-71
2023/06/21 09:21:55;;;;;;;21.60;19.05;;;;;;;29.10;70.47;101521.25;5049477;28;20033;-71
2023/06/21 09:24:21;;;;;;;24.77;20.67;;;;;;;29.45;68.51;101521.22;5050587;28;20159;-72
2023/06/21 09:26:47;;;;;;;24.20;20.58;;;;;;;29.46;70.64;101516.56;5052845;28;20558;-72
2023/06/21 09:29:13;;;;;;;25.20;19.17;;;;;;;29.78;69.54;101529.63;5050988;28;20859;-71
2023/06/21 09:31:38;;;;;;;23.65;18.75;;;;;;;28.94;69.75;101531.69;5044050;28;20033;-71
2023/06/21 09:34:04;;;;;;;26.27;18.83;;;;;;;29.27;68.62;101535.53;5043513;28;20352;-71
2023/06/21 09:36:29;;;;;;;22.52;19.83;;;;;;;28.91;66.22;101532.94;5037326;28;20052;-71
2023/06/21 09:39:08;;;;;;;23.88;18.10;;;;;;;29.21;68.28;101538.22;5037323;28;20041;-72
2023/06/21 09:41:34;;;;;;;22.70;17.20;;;;;;;28.72;65.71;101536.41;5054941;28;20037;-71
2023/06/21 09:43:59;;;;;;;22.70;15.65;;;;;;;28.84;69.30;101541.13;5039675;28;20852;-71
2023/06/21 09:46:25;;;;;;;16.55;14.77;;;;;;;29.06;64.92;101543.84;5044528;28;20498;-71
2023/06/21 09:48:50;;;;;;;18.58;15.48;;;;;;;28.85;66.56;101548.31;5050865;28;20116;-72
2023/06/21 09:51:18;;;;;;;21.30;17.83;;;;;;;28.58;72.75;101547.28;5046814;28;20607;-71
2023/06/21 09:53:47;;;;;;;19.58;15.65;;;;;;;29.02;66.80;101545.28;5034646;28;20045;-72
2023/06/21 09:56:19;;;;;;;16.70;14.85;;;;;;;28.96;64.95;101546.94;5038346;28;20862;-72
2023/06/21 09:58:47;;;;;;;18.17;16.25;;;;;;;28.43;68.95;101543.78;5038363;28;20266;-72
2023/06/21 10:01:16;;;;;;;15.43;13.75;;;;;;;28.14;65.36;101551.06;5033744;28;20101;-72
2023/06/21 10:03:48;;;;;;;15.95;13.73;;;;;;;28.36;65.69;101549.19;5039022;28;20029;-72
2023/06/21 10:06:16;;;;;;;14.00;12.45;;;;;;;28.35;65.72;101550.22;5039892;28;20041;-72
2023/06/21 10:08:43;;;;;;;15.98;12.75;;;;;;;28.15;66.86;101549.16;5032941;28;20103;-72
2023/06/21 10:11:09;;;;;;;19.33;14.13;;;;;;;27.60;66.16;101554.22;5039921;28;20032;-72
2023/06/21 10:13:38;;;;;;;14.27;12.77;;;;;;;28.11;65.53;101550.59;5041752;28;20045;-72
2023/06/21 10:16:04;;;;;;;12.60;11.10;;;;;;;28.53;64.83;101558.00;5039509;28;20139;-72
2023/06/21 10:18:31;;;;;;;14.65;11.40;;;;;;;28.41;65.20;101545.00;5038399;28;20040;-71
2023/06/21 10:21:04;;;;;;;16.75;13.35;;;;;;;28.05;63.25;101557.72;5033418;28;20033;-71
2023/06/21 10:23:34;;;;;;;15.88;11.57;;;;;;;27.62;64.60;101556.78;5030338;28;20033;-72
2023/06/21 10:26:02;;;;;;;14.18;10.95;;;;;;;27.82;63.60;101554.31;5027913;28;20210;-71
2023/06/21 10:28:35;;;;;;;12.52;10.98;;;;;;;27.33;66.45;101550.28;5026925;28;20048;-71
2023/06/21 10:31:02;;;;;;;10.80;9.13;;;;;;;27.29;63.16;101548.13;5031218;28;20040;-73
2023/06/21 10:33:30;;;;;;;13.20;9.35;;;;;;;27.83;62.62;101553.25;5030623;28;20422;-72
2023/06/21 10:35:59;;;;;;;12.65;10.60;;;;;;;28.06;61.69;101564.03;5030212;28;20033;-72
2023/06/21 10:38:34;;;;;;;15.63;8.75;;;;;;;28.41;63.86;101570.53;5029440;28;20117;-72
2023/06/21 10:41:02;;;;;;;9.45;7.50;;;;;;;28.68;61.04;101566.16;5040861;28;20045;-71
2023/06/21 10:43:29;;;;;;;10.23;8.02;;;;;;;28.81;60.54;101565.41;5032582;28;20371;-72
2023/06/21 10:45:57;;;;;;;8.40;6.50;;;;;;;29.15;59.07;101567.34;5040692;28;20084;-73
2023/06/21 10:48:23;;;;;;;9.63;7.28;;;;;;;28.58;58.28;101563.75;5038878;28;20140;-72
2023/06/21 10:50:51;;;;;;;10.38;6.93;;;;;;;28.28;58.02;101573.16;5041822;28;20068;-72
2023/06/21 10:53:18;;;;;;;7.43;6.30;;;;;;;28.63;57.68;101569.50;5028647;28;20145;-72
2023/06/21 10:55:46;;;;;;;8.00;6.20;;;;;;;28.73;60.71;101566.41;5018007;28;20039;-72
2023/06/21 10:58:13;;;;;;;6.70;5.55;;;;;;;28.80;56.50;101571.94;5040093;28;20041;-72
2023/06/21 11:00:43;;;;;;;7.53;6.30;;;;;;;27.85;57.97;101571.19;5029782;28;20033;-71
2023/06/21 11:03:12;;;;;;;8.90;7.13;;;;;;;27.44;59.91;101570.03;5027300;28;20033;-72